createdAt,value
2022-09-07T03:56:30.304Z,11.07
2022-09-07T03:59:33.113Z,10.75
2022-09-07T04:02:35.240Z,11.45
2022-09-07T04:05:37.699Z,11.05
2022-09-07T04:08:40.385Z,11.30
2022-09-07T04:11:42.753Z,11.63
2022-09-07T04:14:44.823Z,11.95
2022-09-07T04:17:47.813Z,11.80
2022-09-07T04:20:50.768Z,11.32
2022-09-07T04:23:53.326Z,10.95
2022-09-07T04:26:55.505Z,11.12
2022-09-07T04:29:57.833Z,10.52
2022-09-07T04:32:59.900Z,11.05
2022-09-07T04:36:02.827Z,10.85
2022-09-07T04:39:05.852Z,10.35
2022-09-07T04:42:08.164Z,10.43
2022-09-07T04:45:10.637Z,10.18
2022-09-07T04:48:12.986Z,10.52
2022-09-07T04:51:16.110Z,10.43
2022-09-07T04:54:18.442Z,10.27
2022-09-07T04:57:25.830Z,9.85
2022-09-07T05:00:28.881Z,10.20
2022-09-07T05:03:32.282Z,9.80
2022-09-07T05:06:34.649Z,10.10
2022-09-07T05:09:36.726Z,8.90
2022-09-07T05:12:39.241Z,9.63
2022-09-07T05:15:41.573Z,10.20
2022-09-07T05:18:44.681Z,9.73
2022-09-07T05:21:46.781Z,9.15
2022-09-07T05:24:49.310Z,8.88
2022-09-07T05:27:51.466Z,8.98
2022-09-07T05:34:31.640Z,9.32
2022-09-07T05:37:34.513Z,8.52
2022-09-07T05:40:40.488Z,8.88
2022-09-07T05:47:06.273Z,8.55
2022-09-07T05:50:09.264Z,8.93
2022-09-07T05:53:11.335Z,8.88
2022-09-07T05:56:13.917Z,8.60
2022-09-07T05:59:16.041Z,9.23
2022-09-07T06:02:18.863Z,8.30
2022-09-07T06:05:21.487Z,8.80
2022-09-07T06:08:23.577Z,8.45
2022-09-07T06:11:27.221Z,8.70
2022-09-07T06:14:29.290Z,9.50
2022-09-07T06:17:31.621Z,8.45
2022-09-07T06:20:33.709Z,9.25
2022-09-07T06:23:37.781Z,8.75
2022-09-07T06:26:39.979Z,8.35
2022-09-07T06:29:42.726Z,10.00
2022-09-07T06:32:45.220Z,9.10
2022-09-07T06:35:58.736Z,9.32
2022-09-07T06:39:03.696Z,8.70
2022-09-07T06:42:06.263Z,12.10
2022-09-07T06:45:13.317Z,10.15
2022-09-07T06:48:15.777Z,9.68
2022-09-07T06:51:20.721Z,9.60
2022-09-07T06:57:45.623Z,9.07
2022-09-07T07:00:48.032Z,9.38
2022-09-07T07:03:53.720Z,8.88
2022-09-07T07:09:57.893Z,8.93
2022-09-07T07:13:00.250Z,9.23
2022-09-07T07:16:05.095Z,9.13
2022-09-07T07:19:07.554Z,9.25
2022-09-07T07:25:34.604Z,9.27
2022-09-07T07:31:59.023Z,9.40
2022-09-07T07:35:01.437Z,8.30
2022-09-07T07:48:17.182Z,9.40
2022-09-07T07:51:20.381Z,7.62
2022-09-07T07:54:22.849Z,9.82
2022-09-07T07:57:25.154Z,9.00
2022-09-07T08:00:37.770Z,7.95
2022-09-07T08:03:49.641Z,8.50
2022-09-07T08:06:52.303Z,9.02
2022-09-07T08:09:54.616Z,7.37
2022-09-07T08:12:57.027Z,7.85
2022-09-07T08:15:59.608Z,7.28
2022-09-07T08:19:01.935Z,8.13
2022-09-07T08:22:04.554Z,6.65
2022-09-07T08:25:07.381Z,8.15
2022-09-07T08:28:09.720Z,7.90
2022-09-07T08:31:14.165Z,8.00
2022-09-07T08:34:16.804Z,7.87
2022-09-07T08:37:18.818Z,7.78
2022-09-07T08:40:21.179Z,6.72
2022-09-07T08:43:49.782Z,7.95
2022-09-07T08:46:58.692Z,8.32
2022-09-07T08:50:09.706Z,7.32
2022-09-07T08:53:17.356Z,7.57
2022-09-07T08:56:33.609Z,7.60
2022-09-07T08:59:51.461Z,7.78
2022-09-07T09:06:31.836Z,8.73
2022-09-07T09:09:54.274Z,9.32
2022-09-07T09:13:18.363Z,8.82
2022-09-07T09:16:24.638Z,9.02
2022-09-07T09:19:58.289Z,8.27
2022-09-07T09:23:12.394Z,12.70
2022-09-07T09:26:24.651Z,6.47
2022-09-07T09:29:26.711Z,8.77
2022-09-07T09:32:52.958Z,7.93
2022-09-07T09:36:00.460Z,9.35
2022-09-07T09:39:32.460Z,8.05
2022-09-07T09:42:35.740Z,7.60
2022-09-07T09:49:22.398Z,7.07
2022-09-07T09:52:28.885Z,8.13
2022-09-07T09:55:36.405Z,8.80
2022-09-07T10:05:54.325Z,8.60
2022-09-07T10:09:01.889Z,7.78
2022-09-07T10:12:06.700Z,8.70
2022-09-07T10:15:26.622Z,8.95
2022-09-07T10:18:35.462Z,7.93
2022-09-07T10:21:37.533Z,7.97
2022-09-07T10:24:40.522Z,7.97
2022-09-07T10:27:45.869Z,7.90
2022-09-07T10:31:18.673Z,7.82
2022-09-07T10:34:33.715Z,11.20
2022-09-07T10:37:42.385Z,7.65
2022-09-07T10:40:53.144Z,8.40
2022-09-07T10:43:56.864Z,8.50
2022-09-07T10:47:26.089Z,8.30
2022-09-07T10:50:39.516Z,8.00
2022-09-07T10:54:34.833Z,8.60
2022-09-07T10:57:40.369Z,7.90
2022-09-07T11:01:07.165Z,9.57
2022-09-07T11:04:29.044Z,8.45
2022-09-07T11:08:01.883Z,7.90
2022-09-07T11:11:11.421Z,7.95
2022-09-07T11:14:21.633Z,8.60
2022-09-07T11:17:28.369Z,9.32
2022-09-07T11:20:37.433Z,8.60
2022-09-07T11:23:44.550Z,8.57
2022-09-07T11:26:57.720Z,9.80
2022-09-07T11:30:12.547Z,11.70
2022-09-07T11:33:26.720Z,12.93
2022-09-07T11:36:36.525Z,13.80
2022-09-07T11:39:48.175Z,18.17
2022-09-07T11:43:14.797Z,16.62
2022-09-07T11:46:26.809Z,18.23
2022-09-07T11:49:31.144Z,18.90
2022-09-07T11:52:43.077Z,18.37
2022-09-07T11:55:49.897Z,18.83
2022-09-07T11:59:00.734Z,18.00
2022-09-07T12:02:57.651Z,19.45
2022-09-07T12:06:11.439Z,19.98
2022-09-07T12:09:53.405Z,18.73
2022-09-07T12:13:23.392Z,18.83
2022-09-07T12:16:36.108Z,18.80
2022-09-07T12:19:39.022Z,18.98
2022-09-07T12:23:07.334Z,19.62
2022-09-07T12:26:34.705Z,20.25
2022-09-07T12:29:37.193Z,19.27
2022-09-07T12:32:56.822Z,19.40
2022-09-07T12:36:02.163Z,20.17
2022-09-07T12:39:19.522Z,17.80
2022-09-07T12:42:36.954Z,19.30
2022-09-07T12:45:39.823Z,18.48
2022-09-07T12:48:48.677Z,19.40
2022-09-07T12:52:15.765Z,18.45
2022-09-07T12:55:28.314Z,19.15
2022-09-07T12:58:37.534Z,19.23
2022-09-07T13:02:00.439Z,18.50
2022-09-07T13:05:44.526Z,19.23
2022-09-07T13:09:08.310Z,18.07
2022-09-07T13:16:05.085Z,17.45
2022-09-07T13:19:14.429Z,17.30
2022-09-07T13:22:35.415Z,16.70
2022-09-07T13:25:37.725Z,16.98
2022-09-07T13:28:56.310Z,16.30
2022-09-07T13:32:15.826Z,16.75
2022-09-07T13:35:24.338Z,15.85
2022-09-07T13:38:29.510Z,15.35
2022-09-07T13:41:41.101Z,15.30
2022-09-07T13:44:53.040Z,15.95
2022-09-07T13:48:12.656Z,14.90
2022-09-07T13:51:39.576Z,16.80
2022-09-07T13:55:20.740Z,15.88
2022-09-07T13:58:34.796Z,14.13
2022-09-07T14:01:45.015Z,12.13
2022-09-07T14:04:51.399Z,12.10
2022-09-07T14:07:53.456Z,12.60
2022-09-07T14:10:55.869Z,13.80
2022-09-07T14:14:16.417Z,12.13
2022-09-07T14:17:19.407Z,11.90
2022-09-07T14:20:23.259Z,13.40
2022-09-07T14:23:34.865Z,11.57
2022-09-07T14:26:45.762Z,13.40
2022-09-07T14:29:48.273Z,12.10
2022-09-07T14:32:53.914Z,11.70
2022-09-07T14:35:57.873Z,11.60
2022-09-07T14:39:05.714Z,11.55
2022-09-07T14:42:11.872Z,13.62
2022-09-07T14:45:22.921Z,12.40
2022-09-07T14:48:32.434Z,11.65
2022-09-07T14:51:37.256Z,12.77
